KCSM/CSM METAR and TAF weather

Enter ICAO airport designator
Station Type Date Time Source
KCSM METAR 2022/01/26 14:53 UTC NOAA

KCSM 261453Z 03008KT 10SM OVC075 M04/M14 A3040 RMK AO2 SLP313 T10441144 53001


Station Type Date Time Source
KCSM Decoded METAR 2022/01/26 14:53 UTC NOAA

CLINTON-SHERMAN AIRPORT, OK, United States (KCSM) 35-21E 99-12W 588M
Jan 26, 2022 - 09:53 AM EST / 2022.01.26 1453 UTC
Wind: from the NNE (030 degrees) at 9 MPH (8 KT):0
Visibility: 10 mile(s):0
Sky conditions: overcast
Temperature: 24.1 F (-4.4 C)
Windchill: 14 F (-10 C):1
Dew Point: 6.1 F (-14.4 C)
Relative Humidity: 45%
Pressure (altimeter): 30.4 in. Hg (1029 hPa)
Pressure tendency: 0.00 inches (0.1 hPa) higher than three hours ago
ob: KCSM 261453Z 03008KT 10SM OVC075 M04/M14 A3040 RMK AO2 SLP313 T10441144 53001
cycle: 15

Station Type Date Time Source
KCSM TAF 2022/01/26 12:22 UTC NOAA

TAF KCSM 261120Z 2612/2712 02010KT P6SM OVC070
FM261600 14006KT P6SM OVC040
FM262000 20008KT 3SM -SN OVC030
TEMPO 2622/2702 1SM -SN BR OVC015
FM270400 20007KT P6SM OVC040
FM270600 21009KT P6SM SCT013

Example: see airport list